createdAt,value
2023-01-20T00:01:15.947Z,99694.13
2023-01-20T00:05:24.179Z,99699.14
2023-01-20T00:09:33.550Z,99698.21
2023-01-20T00:13:41.920Z,99702.20
2023-01-20T00:17:50.474Z,99698.58
2023-01-20T00:21:58.162Z,99695.70
2023-01-20T00:26:09.744Z,99699.26
2023-01-20T00:30:19.211Z,99696.20
2023-01-20T00:34:27.033Z,99699.05
2023-01-20T00:38:34.836Z,99697.55
2023-01-20T00:42:42.838Z,99705.25
2023-01-20T00:46:50.796Z,99705.83
2023-01-20T00:50:58.781Z,99710.86
2023-01-20T00:55:07.606Z,99718.29
2023-01-20T00:59:16.750Z,99715.53
2023-01-20T01:03:25.584Z,99718.65
2023-01-20T01:07:33.651Z,99725.08
2023-01-20T01:11:41.811Z,99723.55
2023-01-20T01:15:53.162Z,99729.85
2023-01-20T01:20:01.463Z,99730.60
2023-01-20T01:24:10.101Z,99734.98
2023-01-20T01:28:18.042Z,99730.11
2023-01-20T01:32:25.960Z,99731.50
2023-01-20T01:36:34.053Z,99738.27
2023-01-20T01:40:42.420Z,99738.92
2023-01-20T01:45:20.593Z,99738.35
2023-01-20T01:49:30.913Z,99738.50
2023-01-20T01:53:43.828Z,99740.59
2023-01-20T01:57:52.896Z,99747.03
2023-01-20T02:02:01.202Z,99744.98
2023-01-20T02:06:10.951Z,99751.97
2023-01-20T02:10:18.571Z,99757.21
2023-01-20T02:14:32.329Z,99761.40
2023-01-20T02:18:48.778Z,99765.04
2023-01-20T02:23:00.584Z,99761.90
2023-01-20T02:27:13.810Z,99761.30
2023-01-20T02:31:53.857Z,99761.95
2023-01-20T02:36:04.591Z,99764.55
2023-01-20T02:40:20.790Z,99774.80
2023-01-20T02:44:40.217Z,99781.23
2023-01-20T02:48:52.347Z,99783.22
2023-01-20T02:53:02.024Z,99787.95
2023-01-20T02:57:11.726Z,99793.49
2023-01-20T03:01:22.494Z,99794.84
2023-01-20T03:05:32.827Z,99802.96
2023-01-20T03:09:44.754Z,99794.77
2023-01-20T03:13:57.674Z,99787.95
2023-01-20T03:18:06.702Z,99790.75
2023-01-20T03:22:14.567Z,99789.05
2023-01-20T03:26:24.338Z,99799.13
2023-01-20T03:30:32.348Z,99810.63
2023-01-20T03:34:43.518Z,99815.51
2023-01-20T03:38:52.105Z,99821.23
2023-01-20T03:43:06.128Z,99833.21
2023-01-20T03:47:22.616Z,99835.67
2023-01-20T03:51:34.551Z,99839.20
2023-01-20T03:55:46.929Z,99845.64
2023-01-20T03:59:55.943Z,99852.12
2023-01-20T04:04:09.926Z,99858.94
2023-01-20T04:08:19.561Z,99863.70
2023-01-20T04:12:27.152Z,99863.69
2023-01-20T04:16:35.363Z,99865.27
2023-01-20T04:20:44.196Z,99869.39
2023-01-20T04:24:55.861Z,99877.02
2023-01-20T04:29:11.922Z,99882.61
2023-01-20T04:33:21.271Z,99876.58
2023-01-20T04:37:31.059Z,99877.48
2023-01-20T04:41:39.358Z,99885.30
2023-01-20T04:45:47.804Z,99891.76
2023-01-20T04:49:55.222Z,99901.66
2023-01-20T04:54:03.046Z,99911.41
2023-01-20T04:58:11.742Z,99911.59
2023-01-20T05:02:21.329Z,99916.09
2023-01-20T05:06:29.729Z,99917.80
2023-01-20T05:10:38.318Z,99922.99
2023-01-20T05:14:46.824Z,99926.95
2023-01-20T05:18:55.629Z,99934.23
2023-01-20T05:23:03.211Z,99932.48
2023-01-20T05:27:10.859Z,99937.52
2023-01-20T05:31:21.453Z,99949.69
2023-01-20T05:35:29.678Z,99955.08
2023-01-20T05:39:37.264Z,99954.73
2023-01-20T05:43:44.749Z,99954.60
2023-01-20T05:47:58.028Z,99961.02
2023-01-20T05:52:06.411Z,99961.52
2023-01-20T05:56:17.091Z,99958.58
2023-01-20T06:00:27.225Z,99960.31
2023-01-20T06:04:35.070Z,99964.13
2023-01-20T06:08:43.347Z,99965.00
2023-01-20T06:12:56.450Z,99964.65
2023-01-20T06:17:04.337Z,99963.25
2023-01-20T06:21:12.402Z,99958.59
2023-01-20T06:25:20.850Z,99951.14
2023-01-20T06:29:28.405Z,99948.52
2023-01-20T06:33:39.663Z,99955.28
2023-01-20T06:37:47.824Z,99954.09
2023-01-20T06:41:58.268Z,99954.44
2023-01-20T06:46:08.545Z,99958.06
2023-01-20T06:50:16.830Z,99963.27
2023-01-20T06:54:27.601Z,99972.48
2023-01-20T06:58:36.590Z,99989.29
2023-01-20T07:02:44.501Z,100002.64
2023-01-20T07:06:52.572Z,100008.37
2023-01-20T07:11:00.447Z,100015.80
2023-01-20T07:15:10.551Z,100022.23
2023-01-20T07:19:17.903Z,100027.27
2023-01-20T07:23:26.170Z,100036.83
2023-01-20T07:27:34.222Z,100040.30
2023-01-20T07:31:41.865Z,100048.27
2023-01-20T07:35:54.822Z,100055.41
2023-01-20T07:40:03.360Z,100056.95
2023-01-20T07:44:12.348Z,100057.64
2023-01-20T07:48:20.435Z,100075.67
2023-01-20T07:52:28.083Z,100083.83
2023-01-20T07:56:38.110Z,100094.10
2023-01-20T08:00:49.202Z,100105.89
2023-01-20T08:04:57.207Z,100109.38
2023-01-20T08:09:05.747Z,100109.20
2023-01-20T08:13:14.691Z,100105.73
2023-01-20T08:17:22.660Z,100100.52
2023-01-20T08:21:32.550Z,100095.14
2023-01-20T08:25:40.686Z,100115.12
2023-01-20T08:29:49.810Z,100124.31
2023-01-20T08:33:58.544Z,100125.00
2023-01-20T08:38:07.999Z,100140.80
2023-01-20T08:42:16.898Z,100143.55
2023-01-20T08:46:25.079Z,100149.60
2023-01-20T08:50:34.485Z,100144.85
2023-01-20T08:54:42.261Z,100138.52
2023-01-20T08:58:52.404Z,100136.57
2023-01-20T09:03:00.531Z,100132.70
2023-01-20T09:07:11.591Z,100129.71
2023-01-20T09:11:22.695Z,100128.63
2023-01-20T09:15:30.635Z,100141.30
2023-01-20T09:19:39.434Z,100150.67
2023-01-20T09:23:48.387Z,100157.41
2023-01-20T09:27:56.193Z,100159.09
2023-01-20T09:32:03.864Z,100164.92
2023-01-20T09:36:13.509Z,100166.88
2023-01-20T09:40:43.305Z,100167.95
2023-01-20T09:44:55.237Z,100164.00
2023-01-20T09:49:28.096Z,100158.29
2023-01-20T09:53:46.633Z,100153.48
2023-01-20T09:57:59.534Z,100151.88
2023-01-20T10:02:13.147Z,100149.25
2023-01-20T10:06:26.920Z,100156.85
2023-01-20T10:10:38.823Z,100152.59
2023-01-20T10:14:49.210Z,100144.31
2023-01-20T10:18:59.352Z,100141.40
2023-01-20T10:23:11.926Z,100139.56
2023-01-20T10:27:19.519Z,100142.98
2023-01-20T10:31:30.131Z,100141.88
2023-01-20T10:35:41.993Z,100142.36
2023-01-20T10:39:53.689Z,100141.45
2023-01-20T10:44:02.716Z,100144.95
2023-01-20T10:48:20.001Z,100151.57
2023-01-20T10:52:38.580Z,100158.36
2023-01-20T10:56:54.062Z,100163.54
2023-01-20T11:01:05.291Z,100162.89
2023-01-20T11:05:20.195Z,100166.40
2023-01-20T11:09:32.198Z,100168.38
2023-01-20T11:13:39.799Z,100167.09
2023-01-20T11:17:49.397Z,100174.39
2023-01-20T11:21:57.346Z,100183.09
2023-01-20T11:26:10.242Z,100179.40
2023-01-20T11:30:28.353Z,100187.91
2023-01-20T11:34:38.996Z,100184.95
2023-01-20T11:38:48.105Z,100184.36
2023-01-20T11:42:56.949Z,100186.52
2023-01-20T11:47:23.253Z,100191.14
2023-01-20T11:51:31.487Z,100195.93
2023-01-20T11:55:48.666Z,100195.33
2023-01-20T11:59:56.568Z,100199.80
2023-01-20T12:04:23.476Z,100206.42
2023-01-20T12:08:35.834Z,100207.12
2023-01-20T12:12:48.427Z,100209.56
2023-01-20T12:17:08.800Z,100210.30
2023-01-20T12:21:17.877Z,100211.39
2023-01-20T12:25:28.081Z,100212.76
2023-01-20T12:29:44.755Z,100208.48
2023-01-20T12:34:00.447Z,100209.11
2023-01-20T12:38:10.259Z,100208.09
2023-01-20T12:42:53.848Z,100204.67
2023-01-20T12:47:08.714Z,100202.88
2023-01-20T12:51:24.194Z,100203.45
2023-01-20T12:55:41.901Z,100196.38
2023-01-20T13:00:00.419Z,100200.09
2023-01-20T13:04:53.468Z,100202.77
2023-01-20T13:09:06.179Z,100206.68
2023-01-20T13:13:24.472Z,100209.92
2023-01-20T13:17:38.298Z,100211.02
2023-01-20T13:21:56.522Z,100214.28
2023-01-20T13:26:12.996Z,100221.54
2023-01-20T13:30:44.512Z,100226.06
2023-01-20T13:34:52.574Z,100232.21
2023-01-20T13:39:27.317Z,100237.69
2023-01-20T13:44:01.551Z,100249.46
2023-01-20T13:48:25.562Z,100256.80
2023-01-20T13:53:19.767Z,100261.48
2023-01-20T13:57:47.761Z,100267.73
2023-01-20T14:01:55.825Z,100270.89
2023-01-20T14:06:06.275Z,100269.02
2023-01-20T14:10:15.899Z,100274.38
2023-01-20T14:14:25.847Z,100276.79
2023-01-20T14:18:34.208Z,100282.02
2023-01-20T14:22:42.330Z,100285.02
2023-01-20T14:26:50.386Z,100294.66
2023-01-20T14:31:19.626Z,100298.20
2023-01-20T14:35:31.307Z,100303.66
2023-01-20T14:39:40.560Z,100311.26
2023-01-20T14:43:49.560Z,100317.25
2023-01-20T14:47:57.854Z,100316.79
2023-01-20T14:52:05.790Z,100320.63
2023-01-20T14:56:21.556Z,100320.98
2023-01-20T15:00:30.572Z,100323.05
2023-01-20T15:04:41.495Z,100325.88
2023-01-20T15:09:05.130Z,100332.58
2023-01-20T15:13:27.728Z,100341.02
2023-01-20T15:17:35.230Z,100348.10
2023-01-20T15:21:44.509Z,100345.88
2023-01-20T15:25:54.203Z,100349.36
2023-01-20T15:30:24.357Z,100358.25
2023-01-20T15:34:32.172Z,100360.02
2023-01-20T15:38:40.321Z,100358.29
2023-01-20T15:42:48.429Z,100356.97
2023-01-20T15:46:57.658Z,100361.55
2023-01-20T15:51:07.465Z,100366.98
2023-01-20T15:55:20.136Z,100379.72
2023-01-20T15:59:30.684Z,100384.41
2023-01-20T16:03:38.996Z,100390.70
2023-01-20T16:07:47.973Z,100391.27
2023-01-20T16:11:55.809Z,100390.95
2023-01-20T16:16:04.146Z,100384.19
2023-01-20T16:20:21.544Z,100380.89
2023-01-20T16:24:29.425Z,100386.48
2023-01-20T16:28:38.120Z,100392.92
2023-01-20T16:32:47.419Z,100401.81
2023-01-20T16:36:55.143Z,100406.38
2023-01-20T16:41:07.997Z,100410.41
2023-01-20T16:45:31.567Z,100412.85
2023-01-20T16:49:40.290Z,100422.59
2023-01-20T16:53:48.639Z,100434.27
2023-01-20T16:57:56.483Z,100443.85
2023-01-20T17:02:04.550Z,100444.92
2023-01-20T17:06:17.853Z,100451.73
2023-01-20T17:10:26.576Z,100459.05
2023-01-20T17:14:35.145Z,100464.44
2023-01-20T17:18:45.946Z,100474.58
2023-01-20T17:22:55.974Z,100474.58
2023-01-20T17:27:03.992Z,100481.73
2023-01-20T17:31:15.020Z,100486.95
2023-01-20T17:35:22.752Z,100492.54
2023-01-20T17:39:39.666Z,100500.23
2023-01-20T17:43:51.594Z,100500.25
2023-01-20T17:47:59.210Z,100503.55
2023-01-20T17:52:07.218Z,100505.27
2023-01-20T17:56:15.608Z,100513.28
2023-01-20T18:00:24.753Z,100522.34
2023-01-20T18:04:32.877Z,100525.49
2023-01-20T18:08:41.216Z,100527.60
2023-01-20T18:12:49.247Z,100526.05
2023-01-20T18:16:57.654Z,100530.39
2023-01-20T18:21:13.527Z,100530.22
2023-01-20T18:25:21.493Z,100527.45
2023-01-20T18:29:30.532Z,100528.84
2023-01-20T18:33:40.026Z,100532.34
2023-01-20T18:37:48.107Z,100535.13
2023-01-20T18:41:56.190Z,100531.11
2023-01-20T18:46:04.504Z,100528.84
2023-01-20T18:50:13.996Z,100527.11
2023-01-20T18:54:22.291Z,100536.73
2023-01-20T18:58:31.883Z,100530.98
2023-01-20T19:02:41.340Z,100531.48
2023-01-20T19:06:49.487Z,100537.25
2023-01-20T19:10:57.384Z,100539.54
2023-01-20T19:15:05.151Z,100545.13
2023-01-20T19:19:13.325Z,100549.30
2023-01-20T19:23:21.630Z,100548.64
2023-01-20T19:27:30.014Z,100554.91
2023-01-20T19:31:40.284Z,100556.31
2023-01-20T19:35:48.181Z,100557.02
2023-01-20T19:39:57.000Z,100561.58
2023-01-20T19:44:07.167Z,100561.59
2023-01-20T19:48:14.932Z,100561.73
2023-01-20T19:52:22.577Z,100568.02
2023-01-20T19:56:32.584Z,100577.27
2023-01-20T20:00:40.355Z,100580.59
2023-01-20T20:04:48.644Z,100579.03
2023-01-20T20:08:57.557Z,100577.11
2023-01-20T20:13:05.892Z,100579.02
2023-01-20T20:17:14.084Z,100576.23
2023-01-20T20:21:22.614Z,100571.71
2023-01-20T20:25:30.817Z,100577.11
2023-01-20T20:29:38.656Z,100578.16
2023-01-20T20:33:47.137Z,100574.86
2023-01-20T20:37:55.003Z,100574.70
2023-01-20T20:42:02.809Z,100574.86
2023-01-20T20:46:11.161Z,100569.29
2023-01-20T20:50:19.914Z,100564.41
2023-01-20T20:54:28.509Z,100559.70
2023-01-20T20:58:36.658Z,100555.17
2023-01-20T21:02:44.587Z,100550.48
2023-01-20T21:06:52.912Z,100545.77
2023-01-20T21:11:03.437Z,100537.94
2023-01-20T21:15:13.828Z,100539.16
2023-01-20T21:19:21.838Z,100544.90
2023-01-20T21:23:30.843Z,100548.55
2023-01-20T21:27:39.625Z,100553.09
2023-01-20T21:31:47.560Z,100553.45
2023-01-20T21:35:55.684Z,100561.62
2023-01-20T21:40:04.199Z,100567.02
2023-01-20T21:44:32.518Z,100567.37
2023-01-20T21:48:57.630Z,100564.41
2023-01-20T21:53:06.031Z,100560.41
2023-01-20T21:57:15.243Z,100565.82
2023-01-20T22:01:22.867Z,100564.05
2023-01-20T22:05:30.875Z,100573.10
2023-01-20T22:09:38.908Z,100580.25
2023-01-20T22:13:47.010Z,100589.48
2023-01-20T22:17:55.984Z,100593.98
2023-01-20T22:22:04.596Z,100586.64
2023-01-20T22:26:12.589Z,100588.91
2023-01-20T22:30:21.134Z,100586.43
2023-01-20T22:34:29.447Z,100581.89
2023-01-20T22:38:37.174Z,100575.46
2023-01-20T22:42:46.014Z,100569.85
2023-01-20T22:46:53.960Z,100573.50
2023-01-20T22:51:08.349Z,100580.29
2023-01-20T22:55:16.818Z,100580.98
2023-01-20T22:59:24.021Z,100580.98
2023-01-20T23:03:31.983Z,100574.73
2023-01-20T23:07:40.815Z,100570.89
2023-01-20T23:11:48.892Z,100577.15
2023-01-20T23:15:56.970Z,100575.59
2023-01-20T23:20:05.161Z,100574.73
2023-01-20T23:24:12.876Z,100570.38
2023-01-20T23:28:20.182Z,100580.64
2023-01-20T23:32:28.145Z,100592.81
2023-01-20T23:36:36.703Z,100590.38
2023-01-20T23:40:44.204Z,100593.52
2023-01-20T23:44:52.184Z,100578.56
2023-01-20T23:49:00.288Z,100588.99
2023-01-20T23:53:07.977Z,100595.77
2023-01-20T23:57:15.681Z,100593.34
